createdAt,value
2023-11-23T00:00:11.889Z,0.43
2023-11-23T00:02:40.104Z,0.63
2023-11-23T00:05:08.745Z,0.88
2023-11-23T00:07:36.077Z,0.80
2023-11-23T00:10:05.635Z,0.65
2023-11-23T00:12:32.495Z,0.10
2023-11-23T00:15:01.960Z,0.68
2023-11-23T00:17:31.755Z,0.77
2023-11-23T00:19:59.061Z,0.70
2023-11-23T00:22:27.480Z,0.33
2023-11-23T00:24:57.172Z,1.23
2023-11-23T00:27:24.383Z,1.10
2023-11-23T00:29:52.638Z,0.82
2023-11-23T00:32:20.546Z,1.15
2023-11-23T00:34:47.686Z,0.22
2023-11-23T00:37:14.833Z,0.67
2023-11-23T00:39:41.745Z,0.73
2023-11-23T00:42:08.791Z,0.30
2023-11-23T00:44:35.832Z,0.60
2023-11-23T00:47:02.648Z,0.20
2023-11-23T00:49:29.662Z,0.30
2023-11-23T00:51:56.730Z,0.75
2023-11-23T00:54:23.877Z,0.87
2023-11-23T00:56:50.730Z,0.60
2023-11-23T00:59:17.468Z,0.55
2023-11-23T01:01:46.130Z,1.08
2023-11-23T01:04:14.615Z,1.30
2023-11-23T01:06:43.208Z,0.90
2023-11-23T01:09:11.025Z,0.85
2023-11-23T01:11:38.042Z,0.85
2023-11-23T01:14:05.034Z,0.75
2023-11-23T01:16:32.231Z,0.57
2023-11-23T01:18:58.986Z,0.08
2023-11-23T01:21:25.897Z,0.43
2023-11-23T01:23:52.953Z,0.30
2023-11-23T01:26:20.041Z,0.88
2023-11-23T01:28:46.884Z,0.63
2023-11-23T01:31:14.460Z,0.13
2023-11-23T01:33:41.630Z,1.27
2023-11-23T01:36:08.677Z,0.73
2023-11-23T01:38:35.571Z,1.93
2023-11-23T01:41:03.587Z,1.38
2023-11-23T01:45:59.957Z,0.63
2023-11-23T01:48:28.234Z,0.17
2023-11-23T01:50:55.842Z,0.75
2023-11-23T01:53:23.482Z,1.35
2023-11-23T01:55:51.011Z,1.05
2023-11-23T01:58:19.353Z,1.50
2023-11-23T02:00:46.735Z,1.60
2023-11-23T02:03:13.707Z,1.25
2023-11-23T02:05:40.610Z,1.17
2023-11-23T02:08:08.604Z,1.40
2023-11-23T02:13:02.507Z,0.38
2023-11-23T02:15:29.400Z,0.63
2023-11-23T02:18:08.672Z,0.52
2023-11-23T02:20:35.974Z,0.95
2023-11-23T02:23:02.900Z,0.27
2023-11-23T02:25:29.992Z,0.40
2023-11-23T02:27:56.948Z,1.13
2023-11-23T02:30:23.902Z,0.98
2023-11-23T02:32:51.659Z,0.10
2023-11-23T02:35:22.265Z,0.65
2023-11-23T02:37:49.406Z,0.30
2023-11-23T02:40:16.869Z,0.37
2023-11-23T02:42:46.314Z,0.50
2023-11-23T02:45:14.447Z,0.68
2023-11-23T02:47:41.969Z,0.40
2023-11-23T02:50:10.505Z,0.10
2023-11-23T02:52:37.354Z,1.45
2023-11-23T02:55:04.457Z,1.23
2023-11-23T02:57:31.416Z,0.25
2023-11-23T02:59:58.547Z,0.38
2023-11-23T03:02:27.248Z,0.38
2023-11-23T03:04:55.421Z,0.32
2023-11-23T03:09:49.134Z,0.10
2023-11-23T03:12:16.019Z,1.03
2023-11-23T03:14:42.868Z,0.00
2023-11-23T03:17:09.724Z,1.35
2023-11-23T03:19:37.638Z,0.22
2023-11-23T03:24:32.327Z,0.52
2023-11-23T03:26:59.936Z,0.30
2023-11-23T03:29:27.578Z,0.30
2023-11-23T03:31:54.476Z,0.43
2023-11-23T03:34:24.866Z,0.25
2023-11-23T03:36:51.946Z,0.65
2023-11-23T03:39:19.799Z,0.57
2023-11-23T03:41:47.219Z,0.43
2023-11-23T03:44:14.111Z,0.28
2023-11-23T03:46:41.734Z,0.00
2023-11-23T03:49:08.667Z,0.10
2023-11-23T03:51:36.046Z,0.20
2023-11-23T03:54:04.020Z,0.28
2023-11-23T03:58:58.445Z,0.32
2023-11-23T04:01:25.153Z,0.10
2023-11-23T04:03:52.223Z,0.35
2023-11-23T04:06:19.182Z,0.20
2023-11-23T04:08:46.314Z,0.33
2023-11-23T04:11:13.189Z,0.00
2023-11-23T04:13:40.272Z,0.00
2023-11-23T04:16:07.162Z,0.45
2023-11-23T04:18:34.197Z,0.30
2023-11-23T04:21:02.050Z,0.30
2023-11-23T04:23:29.147Z,0.05
2023-11-23T04:25:55.963Z,0.17
2023-11-23T04:28:22.796Z,0.80
2023-11-23T04:30:49.622Z,0.70
2023-11-23T04:33:16.536Z,0.88
2023-11-23T04:35:43.583Z,0.00
2023-11-23T04:38:10.604Z,0.50
2023-11-23T04:40:37.507Z,0.10
2023-11-23T04:43:06.650Z,0.22
2023-11-23T04:45:33.681Z,0.08
2023-11-23T04:48:03.223Z,0.40
2023-11-23T04:50:30.385Z,0.60
2023-11-23T04:52:58.636Z,0.23
2023-11-23T04:55:26.621Z,0.10
2023-11-23T05:00:26.194Z,1.17
2023-11-23T05:02:57.795Z,1.05
2023-11-23T05:05:24.728Z,0.98
2023-11-23T05:07:51.746Z,0.70
2023-11-23T05:10:19.559Z,1.67
2023-11-23T05:12:51.724Z,0.55
2023-11-23T05:15:20.470Z,0.85
2023-11-23T05:17:47.843Z,0.30
2023-11-23T05:20:14.983Z,0.22
2023-11-23T05:22:41.773Z,0.35
2023-11-23T05:25:09.308Z,0.25
2023-11-23T05:27:36.601Z,1.00
2023-11-23T05:30:04.023Z,2.22
2023-11-23T05:32:30.944Z,2.22
2023-11-23T05:34:57.858Z,2.90
2023-11-23T05:37:27.867Z,2.40
2023-11-23T05:39:54.694Z,1.85
2023-11-23T05:42:21.756Z,1.50
2023-11-23T05:44:49.096Z,0.57
2023-11-23T05:47:16.053Z,1.10
2023-11-23T05:49:45.807Z,1.30
2023-11-23T05:52:13.229Z,2.05
2023-11-23T05:54:40.200Z,1.20
2023-11-23T05:57:07.253Z,1.55
2023-11-23T05:59:34.264Z,1.40
2023-11-23T06:02:04.265Z,0.68
2023-11-23T06:04:31.488Z,1.15
2023-11-23T06:06:58.729Z,0.68
2023-11-23T06:09:25.900Z,0.32
2023-11-23T06:11:52.924Z,1.63
2023-11-23T06:14:19.867Z,1.30
2023-11-23T06:16:46.925Z,1.77
2023-11-23T06:19:13.762Z,0.53
2023-11-23T06:21:40.553Z,0.95
2023-11-23T06:24:10.321Z,0.70
2023-11-23T06:26:37.191Z,0.80
2023-11-23T06:29:03.983Z,1.13
2023-11-23T06:31:30.978Z,1.02
2023-11-23T06:33:58.811Z,0.53
2023-11-23T06:36:25.953Z,0.90
2023-11-23T06:38:52.964Z,0.60
2023-11-23T06:41:21.086Z,1.33
2023-11-23T06:43:49.437Z,0.65
2023-11-23T06:46:17.546Z,2.05
2023-11-23T06:48:48.260Z,1.88
2023-11-23T06:51:15.212Z,4.25
2023-11-23T06:53:46.403Z,5.20
2023-11-23T06:56:17.882Z,4.30
2023-11-23T06:58:48.957Z,3.55
2023-11-23T07:01:19.845Z,2.83
2023-11-23T07:03:47.072Z,4.63
2023-11-23T07:06:15.498Z,2.50
2023-11-23T07:08:43.100Z,2.03
2023-11-23T07:11:10.085Z,1.08
2023-11-23T07:13:37.023Z,1.40
2023-11-23T07:16:04.523Z,1.17
2023-11-23T07:18:32.110Z,0.82
2023-11-23T07:20:59.281Z,1.23
2023-11-23T07:23:26.872Z,0.98
2023-11-23T07:25:54.297Z,0.32
2023-11-23T07:28:28.517Z,1.10
2023-11-23T07:30:58.288Z,1.08
2023-11-23T07:33:31.021Z,2.10
2023-11-23T07:35:58.106Z,0.43
2023-11-23T07:38:27.092Z,0.73
2023-11-23T07:40:54.117Z,0.63
2023-11-23T07:43:21.210Z,0.60
2023-11-23T07:45:48.066Z,0.35
2023-11-23T07:48:15.454Z,1.40
2023-11-23T07:50:42.730Z,1.02
2023-11-23T07:53:09.965Z,0.65
2023-11-23T07:55:38.252Z,0.57
2023-11-23T07:58:08.672Z,0.75
2023-11-23T08:00:39.114Z,1.80
2023-11-23T08:03:06.958Z,0.77
2023-11-23T08:05:36.228Z,0.90
2023-11-23T08:08:04.372Z,1.20
2023-11-23T08:10:31.785Z,1.27
2023-11-23T08:12:59.678Z,0.70
2023-11-23T08:18:05.311Z,1.35
2023-11-23T08:20:38.104Z,1.98
2023-11-23T08:23:06.171Z,1.52
2023-11-23T08:25:33.215Z,1.55
2023-11-23T08:28:00.228Z,1.77
2023-11-23T08:30:27.263Z,2.43
2023-11-23T08:32:54.526Z,1.83
2023-11-23T08:35:21.707Z,2.88
2023-11-23T08:37:49.540Z,4.78
2023-11-23T08:42:47.076Z,1.00
2023-11-23T08:45:14.087Z,0.57
2023-11-23T08:47:41.019Z,2.47
2023-11-23T08:50:11.893Z,0.57
2023-11-23T08:52:40.292Z,1.75
2023-11-23T08:55:10.207Z,1.45
2023-11-23T08:57:37.721Z,1.10
2023-11-23T09:00:15.149Z,1.30
2023-11-23T09:02:43.656Z,1.70
2023-11-23T09:05:10.993Z,1.08
2023-11-23T09:07:40.274Z,0.50
2023-11-23T09:10:08.528Z,1.63
2023-11-23T09:12:35.541Z,0.90
2023-11-23T09:15:02.486Z,0.85
2023-11-23T09:17:34.736Z,1.05
2023-11-23T09:20:01.764Z,0.70
2023-11-23T09:22:29.160Z,0.30
2023-11-23T09:24:56.724Z,0.63
2023-11-23T09:27:24.538Z,0.60
2023-11-23T09:29:56.052Z,1.02
2023-11-23T09:32:23.017Z,1.45
2023-11-23T09:34:50.774Z,0.40
2023-11-23T09:37:17.736Z,0.60
2023-11-23T09:39:46.833Z,1.00
2023-11-23T09:42:18.000Z,1.67
2023-11-23T09:44:46.651Z,1.80
2023-11-23T09:47:15.346Z,0.57
2023-11-23T09:49:51.517Z,1.88
2023-11-23T09:52:18.518Z,1.20
2023-11-23T09:54:47.918Z,1.20
2023-11-23T09:57:18.352Z,3.35
2023-11-23T09:59:45.145Z,1.42
2023-11-23T10:02:15.211Z,2.10
2023-11-23T10:04:42.000Z,2.67
2023-11-23T10:07:09.834Z,3.38
2023-11-23T10:09:37.676Z,0.63
2023-11-23T10:14:31.753Z,2.20
2023-11-23T10:16:58.710Z,0.40
2023-11-23T10:19:25.708Z,1.15
2023-11-23T10:22:04.808Z,1.43
2023-11-23T10:24:32.181Z,0.80
2023-11-23T10:27:00.096Z,1.08
2023-11-23T10:32:01.095Z,0.93
2023-11-23T10:34:31.361Z,0.10
2023-11-23T10:36:59.453Z,0.90
2023-11-23T10:39:28.963Z,0.95
2023-11-23T10:41:56.766Z,0.40
2023-11-23T10:44:25.019Z,0.88
2023-11-23T10:46:54.908Z,0.80
2023-11-23T10:49:24.249Z,0.88
2023-11-23T10:51:52.779Z,0.82
2023-11-23T10:54:19.535Z,0.20
2023-11-23T10:56:47.992Z,0.25
2023-11-23T10:59:22.180Z,1.02
2023-11-23T11:01:56.051Z,0.45
2023-11-23T11:04:24.195Z,1.10
2023-11-23T11:06:55.687Z,0.93
2023-11-23T11:09:30.146Z,2.20
2023-11-23T11:12:02.330Z,1.20
2023-11-23T11:14:37.553Z,0.65
2023-11-23T11:17:08.285Z,0.35
2023-11-23T11:20:11.494Z,0.30
2023-11-23T11:22:38.377Z,0.60
2023-11-23T11:25:08.861Z,0.57
2023-11-23T11:27:50.305Z,0.90
2023-11-23T11:30:25.110Z,0.88
2023-11-23T11:32:53.682Z,0.65
2023-11-23T11:35:21.934Z,0.50
2023-11-23T11:37:48.825Z,0.40
2023-11-23T11:40:17.066Z,1.08
2023-11-23T11:42:44.267Z,0.65
2023-11-23T11:45:13.945Z,1.85
2023-11-23T11:47:42.193Z,0.95
2023-11-23T11:50:10.316Z,2.92
2023-11-23T11:52:38.434Z,0.25
2023-11-23T11:55:06.763Z,0.77
2023-11-23T11:57:41.154Z,1.23
2023-11-23T12:00:09.172Z,3.25
2023-11-23T12:05:05.811Z,1.30
2023-11-23T12:07:33.000Z,2.08
2023-11-23T12:10:02.742Z,1.38
2023-11-23T12:12:29.800Z,0.63
2023-11-23T12:14:58.213Z,0.30
2023-11-23T12:17:25.298Z,0.40
2023-11-23T12:19:56.296Z,2.67
2023-11-23T12:22:25.408Z,2.60
2023-11-23T12:24:53.467Z,1.05
2023-11-23T12:27:22.498Z,0.68
2023-11-23T12:29:50.035Z,0.40
2023-11-23T12:32:18.375Z,0.55
2023-11-23T12:34:45.485Z,0.57
2023-11-23T12:37:13.010Z,0.67
2023-11-23T12:39:43.508Z,0.70
2023-11-23T12:42:10.306Z,0.77
2023-11-23T12:44:37.248Z,0.28
2023-11-23T12:47:05.114Z,1.20
2023-11-23T12:49:32.142Z,0.98
2023-11-23T12:51:59.952Z,0.37
2023-11-23T12:54:26.801Z,0.55
2023-11-23T12:56:53.948Z,0.57
2023-11-23T12:59:23.790Z,1.25
2023-11-23T13:01:52.154Z,0.20
2023-11-23T13:04:21.078Z,0.88
2023-11-23T13:06:48.480Z,0.90
2023-11-23T13:09:26.686Z,0.60
2023-11-23T13:11:56.606Z,0.70
2023-11-23T13:14:23.823Z,0.28
2023-11-23T13:16:51.039Z,0.43
2023-11-23T13:19:30.554Z,0.57
2023-11-23T13:22:05.668Z,0.70
2023-11-23T13:24:33.979Z,0.43
2023-11-23T13:59:50.658Z,0.88
2023-11-23T14:03:00.359Z,1.27
2023-11-23T14:05:27.742Z,0.80
2023-11-23T14:07:57.305Z,0.93
2023-11-23T14:10:25.617Z,1.17
2023-11-23T14:12:52.982Z,1.33
2023-11-23T14:15:20.786Z,2.53
2023-11-23T14:20:18.204Z,0.60
2023-11-23T14:22:51.148Z,1.92
2023-11-23T14:25:18.663Z,1.05
2023-11-23T14:27:45.966Z,0.43
2023-11-23T14:30:14.210Z,0.77
2023-11-23T14:32:44.440Z,1.50
2023-11-23T14:35:14.820Z,0.22
2023-11-23T14:37:43.803Z,0.50
2023-11-23T14:43:23.696Z,1.42
2023-11-23T14:45:51.305Z,1.35
2023-11-23T14:48:19.854Z,0.45
2023-11-23T14:50:50.617Z,0.38
2023-11-23T14:53:17.877Z,1.23
2023-11-23T14:55:45.056Z,1.85
2023-11-23T14:58:15.399Z,1.20
2023-11-23T15:00:43.949Z,1.35
2023-11-23T15:03:11.862Z,0.95
2023-11-23T15:05:38.795Z,0.68
2023-11-23T15:08:05.921Z,0.68
2023-11-23T15:10:32.980Z,0.73
2023-11-23T15:13:00.061Z,0.83
2023-11-23T15:15:31.471Z,0.70
2023-11-23T15:18:01.701Z,0.65
2023-11-23T15:20:31.840Z,1.33
2023-11-23T15:22:58.847Z,0.77
2023-11-23T15:25:27.557Z,1.73
2023-11-23T15:27:56.052Z,0.73
2023-11-23T15:30:23.524Z,1.33
2023-11-23T15:32:54.245Z,1.38
2023-11-23T15:35:21.688Z,0.85
2023-11-23T15:37:50.791Z,2.30
2023-11-23T15:40:18.516Z,1.02
2023-11-23T15:42:46.714Z,0.68
2023-11-23T15:45:15.352Z,0.77
2023-11-23T15:47:43.383Z,1.55
2023-11-23T15:52:39.700Z,1.20
2023-11-23T15:55:10.141Z,1.60
2023-11-23T15:57:38.147Z,1.38
2023-11-23T16:00:08.197Z,1.25
2023-11-23T16:02:42.164Z,1.40
2023-11-23T16:05:12.368Z,1.20
2023-11-23T16:07:39.299Z,1.65
2023-11-23T16:10:07.321Z,1.13
2023-11-23T16:15:02.816Z,1.52
2023-11-23T16:17:29.949Z,1.05
2023-11-23T16:19:56.940Z,1.70
2023-11-23T16:22:24.219Z,0.03
2023-11-23T16:24:52.929Z,1.88
2023-11-23T16:27:20.110Z,1.30
2023-11-23T16:29:49.545Z,1.52
2023-11-23T16:32:16.691Z,0.98
2023-11-23T16:34:43.918Z,1.02
2023-11-23T16:37:12.663Z,1.35
2023-11-23T16:39:40.104Z,1.75
2023-11-23T16:42:15.846Z,1.88
2023-11-23T16:44:43.069Z,1.65
2023-11-23T16:47:10.007Z,1.08
2023-11-23T16:49:37.073Z,1.85
2023-11-23T16:52:04.357Z,1.70
2023-11-23T16:54:34.484Z,2.67
2023-11-23T16:57:04.966Z,3.30
2023-11-23T16:59:34.983Z,3.33
2023-11-23T17:02:02.097Z,3.38
2023-11-23T17:04:29.116Z,3.47
2023-11-23T17:06:56.251Z,1.63
2023-11-23T17:10:19.548Z,3.42
2023-11-23T17:12:47.004Z,4.20
2023-11-23T17:15:14.233Z,4.40
2023-11-23T17:17:46.573Z,3.63
2023-11-23T17:20:30.840Z,2.85
2023-11-23T17:23:02.979Z,4.97
2023-11-23T17:25:40.509Z,2.92
2023-11-23T17:28:08.576Z,2.53
2023-11-23T17:33:03.162Z,2.65
2023-11-23T17:35:30.968Z,3.25
2023-11-23T17:37:58.877Z,1.92
2023-11-23T17:42:53.504Z,2.72
2023-11-23T17:45:20.945Z,2.28
2023-11-23T17:47:48.277Z,1.13
2023-11-23T17:50:15.875Z,2.13
2023-11-23T17:52:43.171Z,1.95
2023-11-23T17:55:10.262Z,1.10
2023-11-23T18:02:07.322Z,1.52
2023-11-23T18:04:34.559Z,1.95
2023-11-23T18:07:03.082Z,2.30
2023-11-23T18:09:31.832Z,1.35
2023-11-23T18:12:01.399Z,1.58
2023-11-23T18:18:23.932Z,1.50
2023-11-23T18:25:14.143Z,1.48
2023-11-23T18:27:41.905Z,2.78
2023-11-23T18:30:09.487Z,0.85
2023-11-23T18:32:39.640Z,2.20
2023-11-23T18:35:06.845Z,2.13
2023-11-23T18:38:07.952Z,1.90
2023-11-23T18:41:12.512Z,1.95
2023-11-23T18:43:42.985Z,1.33
2023-11-23T18:46:10.119Z,1.48
2023-11-23T18:48:37.446Z,1.60
2023-11-23T18:51:05.656Z,2.35
2023-11-23T18:53:32.828Z,2.97
2023-11-23T18:56:00.057Z,1.65
2023-11-23T18:58:27.324Z,1.15
2023-11-23T19:00:54.679Z,1.00
2023-11-23T19:03:22.109Z,1.88
2023-11-23T19:05:49.425Z,0.52
2023-11-23T19:08:17.121Z,0.90
2023-11-23T19:10:47.366Z,0.90
2023-11-23T19:13:15.133Z,1.10
2023-11-23T19:15:42.886Z,0.52
2023-11-23T19:18:12.098Z,1.40
2023-11-23T19:20:41.333Z,1.65
2023-11-23T19:23:08.918Z,1.50
2023-11-23T19:25:36.682Z,1.75
2023-11-23T19:30:33.987Z,1.42
2023-11-23T19:33:06.903Z,0.35
2023-11-23T19:35:36.047Z,0.80
2023-11-23T19:38:05.512Z,1.23
2023-11-23T19:41:13.986Z,1.58
2023-11-23T19:43:57.311Z,1.23
2023-11-23T19:46:24.917Z,1.70
2023-11-23T19:48:52.458Z,1.20
2023-11-23T19:51:23.941Z,1.23
2023-11-23T19:53:56.519Z,0.82
2023-11-23T19:56:26.150Z,0.55
2023-11-23T19:58:54.104Z,1.70
2023-11-23T20:01:21.437Z,1.35
2023-11-23T20:03:49.032Z,1.83
2023-11-23T20:06:16.184Z,1.58
2023-11-23T20:09:13.306Z,2.33
2023-11-23T20:11:41.253Z,1.50
2023-11-23T20:16:35.467Z,0.95
2023-11-23T20:27:00.341Z,2.28
2023-11-23T20:29:27.392Z,2.00
2023-11-23T20:31:54.258Z,1.90
2023-11-23T20:34:38.769Z,2.77
2023-11-23T20:37:05.891Z,0.30
2023-11-23T20:39:34.195Z,0.87
2023-11-23T20:42:01.333Z,0.40
2023-11-23T20:44:28.572Z,0.97
2023-11-23T20:46:57.669Z,1.15
2023-11-23T20:49:26.491Z,1.35
2023-11-23T20:51:54.200Z,0.65
2023-11-23T20:54:21.521Z,0.80
2023-11-23T20:56:58.364Z,0.80
2023-11-23T20:59:25.827Z,0.55
2023-11-23T21:01:53.625Z,0.75
2023-11-23T21:07:01.579Z,0.88
2023-11-23T21:09:30.340Z,0.30
2023-11-23T21:12:04.383Z,0.30
2023-11-23T21:14:34.197Z,0.95
2023-11-23T21:17:01.705Z,1.00
2023-11-23T21:19:29.109Z,1.00
2023-11-23T21:21:56.500Z,0.75
2023-11-23T21:24:23.821Z,1.65
2023-11-23T21:26:51.098Z,1.00
2023-11-23T21:29:18.154Z,1.40
2023-11-23T21:31:45.511Z,0.97
2023-11-23T21:34:12.452Z,0.90
2023-11-23T21:36:42.869Z,2.03
2023-11-23T21:39:10.323Z,2.08
2023-11-23T21:41:37.276Z,2.45
2023-11-23T21:44:04.487Z,1.50
2023-11-23T21:46:31.372Z,1.67
2023-11-23T21:48:58.321Z,1.20
2023-11-23T21:51:29.292Z,0.98
2023-11-23T21:53:58.034Z,1.00
2023-11-23T21:56:25.307Z,1.13
2023-11-23T21:58:52.307Z,1.08
2023-11-23T22:01:19.420Z,1.07
2023-11-23T22:03:51.371Z,0.65
2023-11-23T22:06:19.215Z,1.60
2023-11-23T22:08:46.131Z,1.08
2023-11-23T22:11:14.146Z,1.05
2023-11-23T22:13:44.652Z,1.08
2023-11-23T22:16:12.249Z,1.35
2023-11-23T22:18:39.463Z,0.83
2023-11-23T22:21:06.749Z,1.48
2023-11-23T22:23:34.440Z,2.67
2023-11-23T22:26:02.286Z,1.70
2023-11-23T22:30:57.130Z,0.20
2023-11-23T22:33:25.680Z,0.13
2023-11-23T22:35:53.132Z,0.63
2023-11-23T22:38:20.209Z,0.65
2023-11-23T22:40:47.252Z,0.30
2023-11-23T22:43:15.639Z,2.47
2023-11-23T22:45:42.936Z,1.80
2023-11-23T22:48:10.264Z,0.25
2023-11-23T22:50:37.302Z,0.38
2023-11-23T22:53:04.084Z,2.27
2023-11-23T22:55:31.276Z,0.25
2023-11-23T22:57:58.353Z,1.08
2023-11-23T23:00:29.407Z,0.20
2023-11-23T23:02:56.463Z,0.68
2023-11-23T23:05:26.603Z,0.80
2023-11-23T23:07:58.169Z,0.38
2023-11-23T23:10:28.469Z,0.40
2023-11-23T23:12:56.588Z,0.38
2023-11-23T23:15:24.241Z,0.75
2023-11-23T23:17:53.028Z,0.28
2023-11-23T23:20:20.490Z,0.28
2023-11-23T23:22:47.424Z,0.98
2023-11-23T23:25:14.840Z,0.55
2023-11-23T23:27:43.672Z,0.20
2023-11-23T23:30:12.624Z,0.50
2023-11-23T23:32:40.901Z,1.13
2023-11-23T23:35:11.356Z,0.50
2023-11-23T23:37:41.466Z,0.57
2023-11-23T23:40:10.651Z,0.70
2023-11-23T23:42:38.210Z,0.40
2023-11-23T23:45:06.174Z,0.65
2023-11-23T23:49:59.960Z,0.70
2023-11-23T23:52:27.094Z,0.43
2023-11-23T23:54:54.149Z,0.10
2023-11-23T23:57:21.311Z,0.43
2023-11-23T23:59:48.237Z,0.10
